SHT14G EGLL-EGJJ
Flight info
| Callsign | SHT14G |
|---|---|
| Flight time | 0h 33m |
| Altitude | 26000 |
| Route | GASGU2J GASGU N866 SAM N63 LELNA LELNA1K |
| Aircraft | A320/M-SDE3FGHIJ1RWXY/S |
Departure
| Time | 2026-05-04 17:01 |
|---|---|
| Airport | London Heathrow Airport (EGLL) |
Arrival
| Time | 2026-05-04 17:35 |
|---|---|
| Airport | Jersey Airport (EGJJ) |
| Time | Latitude | Longitude | Altitude | Speed | Heading |
|---|---|---|---|---|---|
| 2026-05-04 15:54 | 51.47399 | -0.48590 | 87 ft | 0 kts | 270° |
| 2026-05-04 16:49 | 51.47399 | -0.48517 | 87 ft | 2 kts | 270° |
| 2026-05-04 16:50 | 51.47373 | -0.48477 | 88 ft | 4 kts | 359° |
| 2026-05-04 16:50 | 51.47364 | -0.48477 | 89 ft | 0 kts | 360° |
| 2026-05-04 16:53 | 51.47369 | -0.48477 | 90 ft | 2 kts | 360° |
| 2026-05-04 16:53 | 51.47500 | -0.48478 | 87 ft | 11 kts | 360° |
| 2026-05-04 16:54 | 51.47569 | -0.48469 | 89 ft | 9 kts | 33° |
| 2026-05-04 16:55 | 51.47581 | -0.47787 | 90 ft | 21 kts | 89° |
| 2026-05-04 16:55 | 51.47581 | -0.47278 | 90 ft | 25 kts | 89° |
| 2026-05-04 16:56 | 51.47592 | -0.46706 | 87 ft | 24 kts | 89° |
| 2026-05-04 16:56 | 51.47595 | -0.45937 | 90 ft | 27 kts | 89° |
| 2026-05-04 16:57 | 51.47597 | -0.45630 | 87 ft | 28 kts | 90° |
| 2026-05-04 16:57 | 51.47597 | -0.44922 | 87 ft | 26 kts | 91° |
| 2026-05-04 16:58 | 51.47591 | -0.44185 | 87 ft | 22 kts | 91° |
| 2026-05-04 16:58 | 51.47592 | -0.43936 | 87 ft | 21 kts | 88° |
| 2026-05-04 16:59 | 51.47592 | -0.43847 | 87 ft | 0 kts | 89° |
| 2026-05-04 17:00 | 51.47629 | -0.43764 | 90 ft | 8 kts | 356° |
| 2026-05-04 17:00 | 51.47766 | -0.44007 | 85 ft | 39 kts | 269° |
| 2026-05-04 17:01 | 51.47758 | -0.46313 | 89 ft | 157 kts | 269° |
| 2026-05-04 17:01 | 51.47737 | -0.49944 | 1372 ft | 161 kts | 269° |
| 2026-05-04 17:02 | 51.47588 | -0.53853 | 2279 ft | 196 kts | 255° |
| 2026-05-04 17:02 | 51.46835 | -0.58702 | 3192 ft | 246 kts | 257° |
| 2026-05-04 17:03 | 51.46408 | -0.61442 | 3899 ft | 258 kts | 256° |
| 2026-05-04 17:03 | 51.45969 | -0.64212 | 4835 ft | 262 kts | 256° |
| 2026-05-04 17:03 | 51.45519 | -0.70057 | 6666 ft | 265 kts | 267° |
| 2026-05-04 17:04 | 51.45397 | -0.76033 | 8319 ft | 275 kts | 267° |
| 2026-05-04 17:04 | 51.45242 | -0.82231 | 10017 ft | 281 kts | 256° |
| 2026-05-04 17:05 | 51.42925 | -0.87088 | 11305 ft | 293 kts | 214° |
| 2026-05-04 17:05 | 51.39255 | -0.90861 | 11981 ft | 327 kts | 212° |
| 2026-05-04 17:06 | 51.35314 | -0.94666 | 13393 ft | 334 kts | 210° |
| 2026-05-04 17:06 | 51.33277 | -0.96480 | 14094 ft | 337 kts | 209° |
| 2026-05-04 17:07 | 51.29128 | -1.00080 | 15400 ft | 342 kts | 209° |
| 2026-05-04 17:07 | 51.27756 | -1.01339 | 15821 ft | 344 kts | 211° |
| 2026-05-04 17:07 | 51.25034 | -1.04061 | 16678 ft | 347 kts | 213° |
| 2026-05-04 17:07 | 51.23008 | -1.06191 | 17293 ft | 350 kts | 213° |
| 2026-05-04 17:08 | 51.20977 | -1.08348 | 17936 ft | 353 kts | 213° |
| 2026-05-04 17:08 | 51.16879 | -1.12660 | 19131 ft | 358 kts | 213° |
| 2026-05-04 17:08 | 51.14785 | -1.14832 | 19738 ft | 360 kts | 213° |
| 2026-05-04 17:09 | 51.12673 | -1.17005 | 20358 ft | 362 kts | 212° |
| 2026-05-04 17:09 | 51.10551 | -1.19182 | 20960 ft | 365 kts | 212° |
| 2026-05-04 17:09 | 51.08410 | -1.21373 | 21561 ft | 367 kts | 212° |
| 2026-05-04 17:10 | 51.04081 | -1.25783 | 22738 ft | 372 kts | 212° |
| 2026-05-04 17:10 | 50.97498 | -1.32486 | 24249 ft | 378 kts | 212° |
| 2026-05-04 17:11 | 50.95257 | -1.34703 | 24689 ft | 380 kts | 208° |
| 2026-05-04 17:11 | 50.92904 | -1.36609 | 24944 ft | 380 kts | 206° |
| 2026-05-04 17:11 | 50.88181 | -1.40374 | 25002 ft | 380 kts | 206° |
| 2026-05-04 17:12 | 50.85821 | -1.42248 | 25001 ft | 379 kts | 206° |
| 2026-05-04 17:12 | 50.81109 | -1.46004 | 24996 ft | 379 kts | 206° |
| 2026-05-04 17:13 | 50.74074 | -1.51594 | 25003 ft | 379 kts | 206° |
| 2026-05-04 17:14 | 50.67005 | -1.57192 | 25003 ft | 379 kts | 206° |
| 2026-05-04 17:14 | 50.64649 | -1.59055 | 25002 ft | 379 kts | 206° |
| 2026-05-04 17:14 | 50.59931 | -1.62780 | 25000 ft | 379 kts | 206° |
| 2026-05-04 17:15 | 50.57574 | -1.64635 | 25000 ft | 379 kts | 206° |
| 2026-05-04 17:15 | 50.52856 | -1.68347 | 25001 ft | 379 kts | 205° |
| 2026-05-04 17:16 | 50.48133 | -1.72045 | 25001 ft | 379 kts | 205° |
| 2026-05-04 17:16 | 50.41050 | -1.77587 | 25000 ft | 379 kts | 205° |
| 2026-05-04 17:17 | 50.38686 | -1.79433 | 24997 ft | 379 kts | 205° |
| 2026-05-04 17:17 | 50.31590 | -1.84936 | 24991 ft | 380 kts | 205° |
| 2026-05-04 17:18 | 50.29256 | -1.86746 | 24993 ft | 380 kts | 205° |
| 2026-05-04 17:18 | 50.24531 | -1.90412 | 24993 ft | 380 kts | 205° |
| 2026-05-04 17:19 | 50.19791 | -1.94085 | 24989 ft | 380 kts | 205° |
| 2026-05-04 17:19 | 50.15055 | -1.97741 | 24991 ft | 380 kts | 205° |
| 2026-05-04 17:20 | 50.10318 | -2.01389 | 24987 ft | 380 kts | 205° |
| 2026-05-04 17:20 | 50.05569 | -2.05031 | 24987 ft | 380 kts | 205° |
| 2026-05-04 17:20 | 50.03198 | -2.06848 | 24700 ft | 379 kts | 205° |
| 2026-05-04 17:21 | 49.98373 | -2.10406 | 22943 ft | 388 kts | 199° |
| 2026-05-04 17:21 | 49.93102 | -2.12417 | 21072 ft | 393 kts | 192° |
| 2026-05-04 17:22 | 49.90420 | -2.13332 | 20183 ft | 395 kts | 192° |
| 2026-05-04 17:22 | 49.87736 | -2.14248 | 19317 ft | 397 kts | 192° |
| 2026-05-04 17:23 | 49.79647 | -2.17044 | 16636 ft | 400 kts | 196° |
| 2026-05-04 17:23 | 49.77119 | -2.18819 | 15735 ft | 400 kts | 210° |
| 2026-05-04 17:23 | 49.72346 | -2.23249 | 14011 ft | 400 kts | 211° |
| 2026-05-04 17:24 | 49.69978 | -2.25462 | 13159 ft | 390 kts | 211° |
| 2026-05-04 17:24 | 49.63672 | -2.31349 | 11606 ft | 324 kts | 211° |
| 2026-05-04 17:25 | 49.61776 | -2.33114 | 11113 ft | 315 kts | 211° |
| 2026-05-04 17:25 | 49.58147 | -2.36480 | 10125 ft | 293 kts | 211° |
| 2026-05-04 17:26 | 49.54703 | -2.39661 | 9100 ft | 289 kts | 211° |
| 2026-05-04 17:26 | 49.49563 | -2.44379 | 7940 ft | 286 kts | 211° |
| 2026-05-04 17:27 | 49.46156 | -2.47486 | 7195 ft | 283 kts | 211° |
| 2026-05-04 17:27 | 49.42747 | -2.49789 | 6456 ft | 260 kts | 192° |
| 2026-05-04 17:28 | 49.39292 | -2.50767 | 5700 ft | 249 kts | 191° |
| 2026-05-04 17:29 | 49.34196 | -2.52091 | 4774 ft | 246 kts | 185° |
| 2026-05-04 17:29 | 49.29499 | -2.49834 | 4361 ft | 233 kts | 158° |
| 2026-05-04 17:30 | 49.25270 | -2.47063 | 3963 ft | 208 kts | 158° |
| 2026-05-04 17:31 | 49.22753 | -2.45411 | 3743 ft | 186 kts | 158° |
| 2026-05-04 17:31 | 49.19993 | -2.41903 | 3312 ft | 173 kts | 120° |
| 2026-05-04 17:32 | 49.19369 | -2.38408 | 2563 ft | 171 kts | 90° |
| 2026-05-04 17:33 | 49.19678 | -2.33047 | 1930 ft | 169 kts | 82° |
| 2026-05-04 17:33 | 49.19817 | -2.31275 | 1760 ft | 162 kts | 82° |
| 2026-05-04 17:34 | 49.20198 | -2.26673 | 1152 ft | 140 kts | 81° |
| 2026-05-04 17:34 | 49.20320 | -2.25227 | 949 ft | 138 kts | 80° |
| 2026-05-04 17:35 | 49.20685 | -2.20946 | 374 ft | 132 kts | 79° |
| 2026-05-04 17:35 | 49.20860 | -2.18821 | 283 ft | 35 kts | 82° |
| 2026-05-04 17:35 | 49.20887 | -2.18479 | 281 ft | 23 kts | 92° |
| 2026-05-04 17:36 | 49.20789 | -2.18394 | 288 ft | 18 kts | 211° |
| 2026-05-04 17:36 | 49.20728 | -2.18562 | 284 ft | 20 kts | 263° |
| 2026-05-04 17:36 | 49.20712 | -2.18786 | 284 ft | 23 kts | 263° |
| 2026-05-04 17:36 | 49.20689 | -2.19038 | 286 ft | 25 kts | 263° |
| 2026-05-04 17:37 | 49.20692 | -2.19270 | 284 ft | 19 kts | 284° |
| 2026-05-04 17:37 | 49.20708 | -2.19452 | 284 ft | 16 kts | 262° |
| 2026-05-04 17:37 | 49.20683 | -2.19612 | 284 ft | 13 kts | 240° |
| 2026-05-04 17:37 | 49.20620 | -2.19697 | 284 ft | 11 kts | 215° |
| 2026-05-04 17:38 | 49.20573 | -2.19701 | 284 ft | 4 kts | 173° |
| 2026-05-04 17:38 | 49.20559 | -2.19699 | 284 ft | 2 kts | 173° |
| 2026-05-04 17:40 | 49.20558 | -2.19699 | 285 ft | 0 kts | 174° |
| 2026-05-04 17:40 | 49.20551 | -2.19806 | 287 ft | 0 kts | 174° |